Time;durP1;ratioP1;P1;durP2;ratioP2;P2;SDS_P1;SDS_P2;PMS_P1;PMS_P2;Temp;Humidity;BMP_temperature;BMP_pressure;BME280_temperature;BME280_humidity;BME280_pressure;Samples;Min_cycle;Max_cycle;Signal;HPM_P1;HPM_P2
2020/12/21 00:02:47;;;;;;;7.62;1.42;;;7.70;99.90;;;;;;6766606;88;20497;-80
2020/12/21 00:12:48;;;;;;;4.25;1.02;;;7.60;99.90;;;;;;6765946;88;22475;-79
2020/12/21 00:22:48;;;;;;;9.48;1.67;;;7.40;99.90;;;;;;6748271;88;20348;-79
2020/12/21 00:32:49;;;;;;;8.18;2.40;;;7.20;99.90;;;;;;6744130;88;20329;-79
2020/12/21 00:42:50;;;;;;;11.60;2.05;;;6.70;99.90;;;;;;6745671;88;20759;-79
2020/12/21 00:53:31;;;;;;;9.82;3.10;;;6.30;99.90;;;;;;6759957;77;20304;-76
2020/12/21 01:03:32;;;;;;;10.90;3.15;;;5.90;99.90;;;;;;6757313;88;20210;-77
2020/12/21 01:13:32;;;;;;;9.90;3.78;;;5.80;99.90;;;;;;6761350;88;20635;-77
2020/12/21 01:23:33;;;;;;;8.30;3.40;;;5.60;99.90;;;;;;6759162;88;20325;-76
2020/12/21 01:33:33;;;;;;;16.15;3.60;;;5.60;99.90;;;;;;6760311;88;20220;-77
2020/12/21 01:43:34;;;;;;;9.23;4.15;;;5.40;99.90;;;;;;6750848;88;20208;-77
2020/12/21 01:53:37;;;;;;;14.50;5.07;;;5.30;99.90;;;;;;6759097;87;20188;-77
2020/12/21 02:03:38;;;;;;;11.18;4.43;;;5.30;99.90;;;;;;6758916;88;20232;-77
2020/12/21 02:13:39;;;;;;;7.62;3.78;;;5.30;99.90;;;;;;6738566;88;20210;-78
2020/12/21 02:23:39;;;;;;;11.27;3.30;;;5.20;99.90;;;;;;6740242;88;20712;-78
2020/12/21 02:33:41;;;;;;;11.25;3.00;;;5.30;99.90;;;;;;6743122;88;20183;-77
2020/12/21 02:43:42;;;;;;;11.05;3.45;;;5.50;99.90;;;;;;6745111;88;20189;-78
2020/12/21 02:53:43;;;;;;;10.55;3.20;;;5.40;99.90;;;;;;6744562;88;20221;-78
2020/12/21 03:03:43;;;;;;;10.07;2.45;;;5.40;99.90;;;;;;6746845;88;20208;-76
2020/12/21 03:13:44;;;;;;;13.27;2.55;;;5.40;99.90;;;;;;6745038;88;20189;-77
2020/12/21 03:23:44;;;;;;;8.57;3.05;;;5.30;99.90;;;;;;6738219;88;20216;-77
2020/12/21 03:33:45;;;;;;;7.95;2.40;;;5.20;99.90;;;;;;6752268;88;20322;-77
2020/12/21 03:43:45;;;;;;;9.20;2.47;;;4.90;99.90;;;;;;6758004;88;20205;-76
2020/12/21 03:53:46;;;;;;;10.60;2.83;;;5.00;99.90;;;;;;6755833;88;20644;-77
2020/12/21 04:03:46;;;;;;;11.12;2.67;;;4.90;99.90;;;;;;6758719;88;20223;-77
2020/12/21 04:13:47;;;;;;;7.87;2.25;;;4.90;99.90;;;;;;6756579;88;20203;-78
2020/12/21 04:23:47;;;;;;;7.43;2.20;;;5.10;99.90;;;;;;6763820;88;20199;-77
2020/12/21 04:33:48;;;;;;;6.45;2.12;;;5.30;99.90;;;;;;6763788;88;20213;-78
2020/12/21 04:43:50;;;;;;;8.85;2.40;;;5.50;99.90;;;;;;6766287;88;20278;-77
2020/12/21 04:53:50;;;;;;;6.90;2.28;;;5.70;99.90;;;;;;6767163;88;20208;-76
2020/12/21 05:03:51;;;;;;;7.93;2.00;;;5.80;99.90;;;;;;6763371;88;20354;-77
2020/12/21 05:13:51;;;;;;;8.63;1.70;;;5.90;99.90;;;;;;6763201;88;20176;-76
2020/12/21 05:23:56;;;;;;;9.50;2.22;;;6.00;99.90;;;;;;6761368;88;20187;-76
2020/12/21 05:33:57;;;;;;;8.85;2.28;;;5.90;99.90;;;;;;6763626;88;20199;-78
2020/12/21 05:44:04;;;;;;;5.37;1.90;;;6.00;99.90;;;;;;6763107;88;20192;-77
2020/12/21 05:54:06;;;;;;;6.28;2.33;;;6.00;99.90;;;;;;6764638;88;20634;-76
2020/12/21 06:04:13;;;;;;;7.45;2.00;;;6.00;99.90;;;;;;6760804;88;20216;-76
2020/12/21 06:14:15;;;;;;;7.97;2.35;;;6.10;99.90;;;;;;6744133;88;20313;-76
2020/12/21 06:24:17;;;;;;;12.45;2.55;;;6.20;99.90;;;;;;6746106;88;20342;-77
2020/12/21 06:34:31;;;;;;;8.43;2.53;;;6.30;99.90;;;;;;6750360;88;20225;-76
2020/12/21 06:44:33;;;;;;;8.52;2.45;;;6.50;99.90;;;;;;6757638;88;20737;-77
2020/12/21 06:54:34;;;;;;;10.18;2.67;;;6.60;99.90;;;;;;6766046;77;20199;-78
2020/12/21 07:04:34;;;;;;;6.35;2.17;;;6.70;99.90;;;;;;6741147;88;20251;-78
2020/12/21 07:14:39;;;;;;;9.93;2.22;;;6.70;99.90;;;;;;6728575;88;20293;-79
2020/12/21 07:24:41;;;;;;;12.95;2.12;;;6.70;99.90;;;;;;6733950;88;20283;-75
2020/12/21 07:34:42;;;;;;;10.65;2.42;;;6.70;99.90;;;;;;6730805;88;20656;-76
2020/12/21 07:44:50;;;;;;;8.18;1.87;;;6.80;99.90;;;;;;6719249;88;20237;-75
2020/12/21 07:54:51;;;;;;;4.95;1.87;;;6.90;99.90;;;;;;6725037;88;20186;-76
2020/12/21 08:04:52;;;;;;;7.72;1.90;;;7.00;99.90;;;;;;6722867;88;20232;-76
2020/12/21 08:15:00;;;;;;;5.85;1.87;;;7.00;99.90;;;;;;6733184;88;20210;-76
2020/12/21 08:25:12;;;;;;;6.72;1.70;;;7.10;99.90;;;;;;6732265;88;20196;-78
2020/12/21 08:35:13;;;;;;;6.18;1.48;;;7.20;99.90;;;;;;6735793;88;20378;-76
2020/12/21 08:45:19;;;;;;;7.95;1.62;;;7.30;99.90;;;;;;6736149;88;20603;-76
2020/12/21 08:55:20;;;;;;;6.40;1.50;;;7.40;99.90;;;;;;6723828;88;20203;-75
2020/12/21 09:05:20;;;;;;;5.60;1.37;;;7.50;99.90;;;;;;6735366;88;20177;-76
2020/12/21 09:15:21;;;;;;;6.55;1.77;;;7.60;99.90;;;;;;6738665;88;20201;-76
2020/12/21 09:25:21;;;;;;;6.68;1.85;;;7.60;99.90;;;;;;6723903;88;20199;-77
2020/12/21 09:35:22;;;;;;;5.25;1.85;;;7.70;99.90;;;;;;6727335;88;20312;-77
2020/12/21 09:45:22;;;;;;;6.45;2.17;;;7.90;99.90;;;;;;6720314;88;20239;-76
2020/12/21 09:55:23;;;;;;;7.00;2.20;;;8.00;99.90;;;;;;6718738;88;20349;-76
2020/12/21 10:05:23;;;;;;;12.93;3.45;;;7.90;99.90;;;;;;6735702;88;20209;-76
2020/12/21 10:15:24;;;;;;;12.10;3.42;;;7.90;99.90;;;;;;6732279;88;20235;-76
2020/12/21 10:25:25;;;;;;;10.55;3.83;;;7.80;99.90;;;;;;6716938;88;20203;-76
2020/12/21 10:35:25;;;;;;;10.55;3.22;;;7.70;99.90;;;;;;6723217;88;20182;-77
2020/12/21 10:45:26;;;;;;;10.65;3.28;;;7.80;99.90;;;;;;6737066;88;20210;-77
2020/12/21 10:55:27;;;;;;;11.75;3.30;;;7.70;99.90;;;;;;6718785;88;20198;-76
2020/12/21 11:05:28;;;;;;;9.30;3.00;;;7.90;99.90;;;;;;6734911;88;20212;-76
2020/12/21 11:15:29;;;;;;;12.85;3.40;;;8.00;99.90;;;;;;6738907;88;20267;-75
2020/12/21 11:25:29;;;;;;;8.30;2.67;;;8.10;99.90;;;;;;6733048;88;20204;-78
2020/12/21 11:35:30;;;;;;;10.98;3.20;;;8.20;99.90;;;;;;6727144;88;20655;-79
2020/12/21 11:45:31;;;;;;;10.57;3.08;;;8.30;99.90;;;;;;6734654;88;20222;-77
2020/12/21 11:55:31;;;;;;;8.73;2.58;;;8.60;99.90;;;;;;6736870;88;20197;-79
2020/12/21 12:05:32;;;;;;;3.65;2.10;;;8.70;99.90;;;;;;6728582;88;20214;-77
2020/12/21 12:15:32;;;;;;;12.63;3.42;;;8.80;99.90;;;;;;6726496;88;20294;-79
2020/12/21 12:25:33;;;;;;;7.57;2.60;;;8.90;99.90;;;;;;6729978;88;20725;-79
2020/12/21 12:35:33;;;;;;;10.93;3.10;;;9.00;99.90;;;;;;6726424;88;20735;-78
2020/12/21 12:45:34;;;;;;;8.55;3.10;;;9.00;99.90;;;;;;6733254;88;20207;-77
2020/12/21 12:55:34;;;;;;;7.60;2.92;;;9.00;99.90;;;;;;6747224;77;20822;-76
2020/12/21 13:05:35;;;;;;;6.97;2.87;;;9.00;99.90;;;;;;6744202;88;20263;-77
2020/12/21 13:15:36;;;;;;;6.28;2.90;;;8.90;99.90;;;;;;6740138;88;20660;-76
2020/12/21 13:25:36;;;;;;;6.03;2.80;;;8.80;99.90;;;;;;6739027;88;20311;-75
2020/12/21 13:35:37;;;;;;;6.73;2.57;;;8.80;99.90;;;;;;6740176;88;20192;-75
2020/12/21 13:45:37;;;;;;;6.07;2.60;;;8.90;99.90;;;;;;6737024;88;20582;-73
2020/12/21 13:55:38;;;;;;;4.22;1.85;;;8.80;99.90;;;;;;6727631;88;20643;-74
2020/12/21 14:05:38;;;;;;;7.15;2.60;;;8.80;99.90;;;;;;6734258;88;20193;-74
2020/12/21 14:15:39;;;;;;;3.55;1.67;;;8.70;99.90;;;;;;6727748;88;20621;-73
2020/12/21 14:25:39;;;;;;;3.90;1.37;;;8.70;99.90;;;;;;6731014;88;20929;-73
2020/12/21 14:35:40;;;;;;;3.10;1.30;;;8.60;99.90;;;;;;6725902;88;20603;-73
2020/12/21 14:45:41;;;;;;;2.33;0.90;;;8.50;99.90;;;;;;6722255;88;20209;-72
2020/12/21 14:55:41;;;;;;;2.67;1.00;;;8.50;99.90;;;;;;6726354;88;20680;-74
2020/12/21 15:05:42;;;;;;;3.00;1.03;;;8.40;99.90;;;;;;6727697;88;20637;-72
2020/12/21 15:15:42;;;;;;;3.50;1.23;;;8.50;99.90;;;;;;6728209;88;21107;-72
2020/12/21 15:25:43;;;;;;;4.00;1.02;;;8.40;99.90;;;;;;6726886;88;20697;-72
2020/12/21 15:35:43;;;;;;;6.82;1.50;;;8.40;99.90;;;;;;6724624;88;20688;-73
2020/12/21 15:45:44;;;;;;;2.47;1.30;;;8.20;99.90;;;;;;6727911;88;20286;-72
2020/12/21 15:55:45;;;;;;;3.28;1.45;;;8.20;99.90;;;;;;6724788;88;20203;-72
2020/12/21 16:05:46;;;;;;;3.70;1.50;;;8.10;99.90;;;;;;6723231;88;20201;-72
2020/12/21 16:15:47;;;;;;;4.60;1.35;;;8.10;99.90;;;;;;6727145;88;20197;-72
2020/12/21 16:25:47;;;;;;;3.30;1.52;;;8.10;99.90;;;;;;6726246;88;20235;-71
2020/12/21 16:35:52;;;;;;;4.43;1.50;;;8.10;99.90;;;;;;6727604;88;20193;-72
2020/12/21 16:45:54;;;;;;;6.57;1.75;;;8.10;99.90;;;;;;6730183;88;21066;-72
2020/12/21 16:55:55;;;;;;;3.22;1.50;;;8.00;99.90;;;;;;6727242;88;20703;-73
2020/12/21 17:05:55;;;;;;;3.80;1.80;;;8.00;99.90;;;;;;6730787;88;20232;-74
2020/12/21 17:15:56;;;;;;;4.80;1.63;;;8.10;99.90;;;;;;6734517;88;20241;-74
2020/12/21 17:25:57;;;;;;;3.33;2.00;;;8.10;99.90;;;;;;6736428;88;20522;-73
2020/12/21 17:35:58;;;;;;;3.12;1.65;;;8.10;99.90;;;;;;6737346;88;20588;-75
2020/12/21 17:45:59;;;;;;;4.12;1.90;;;8.20;99.90;;;;;;6733681;88;20248;-74
2020/12/21 17:55:59;;;;;;;2.92;1.90;;;8.20;99.90;;;;;;6730250;88;20232;-74
2020/12/21 18:06:03;;;;;;;3.47;1.90;;;8.20;99.90;;;;;;6725882;88;20236;-73
2020/12/21 18:16:03;;;;;;;3.70;1.70;;;8.30;99.90;;;;;;6731899;88;20690;-74
2020/12/21 18:26:04;;;;;;;2.87;1.87;;;8.30;99.90;;;;;;6731194;88;20209;-73
2020/12/21 18:36:05;;;;;;;5.70;2.37;;;8.30;99.90;;;;;;6727398;88;20703;-74
2020/12/21 18:46:05;;;;;;;4.78;2.25;;;8.30;99.90;;;;;;6728695;88;20692;-74
2020/12/21 18:56:06;;;;;;;2.35;1.60;;;8.30;99.90;;;;;;6745737;77;20165;-73
2020/12/21 19:06:06;;;;;;;2.50;1.35;;;8.40;99.90;;;;;;6733777;88;20357;-71
2020/12/21 19:16:07;;;;;;;3.08;1.42;;;8.50;99.90;;;;;;6737335;88;20305;-76
2020/12/21 19:26:11;;;;;;;3.87;1.10;;;8.50;99.90;;;;;;6735843;88;20650;-76
2020/12/21 19:36:12;;;;;;;2.22;1.10;;;8.80;99.90;;;;;;6739655;88;20214;-75
2020/12/21 19:46:13;;;;;;;1.37;0.70;;;8.90;99.90;;;;;;6734843;88;20270;-76
2020/12/21 19:56:14;;;;;;;2.62;0.70;;;9.00;99.90;;;;;;6729010;88;20210;-77
2020/12/21 20:06:15;;;;;;;1.15;0.40;;;9.20;99.90;;;;;;6730708;88;20215;-77
2020/12/21 20:16:15;;;;;;;1.70;0.40;;;9.40;99.90;;;;;;6729790;88;20193;-75
2020/12/21 20:26:16;;;;;;;1.10;0.50;;;9.60;99.90;;;;;;6733181;88;21087;-77
2020/12/21 20:36:16;;;;;;;0.70;0.30;;;9.50;99.90;;;;;;6725521;88;20611;-75
2020/12/21 20:46:17;;;;;;;0.37;0.20;;;9.60;99.90;;;;;;6729059;88;21066;-76
2020/12/21 20:56:17;;;;;;;0.55;0.30;;;9.50;99.90;;;;;;6733049;88;20208;-75
2020/12/21 21:06:18;;;;;;;0.60;0.25;;;9.70;99.90;;;;;;6730602;88;20510;-76
2020/12/21 21:16:19;;;;;;;0.85;0.30;;;9.80;99.90;;;;;;6731049;88;20755;-74
2020/12/21 21:26:19;;;;;;;0.63;0.30;;;9.90;99.90;;;;;;6731715;88;20579;-74
2020/12/21 21:36:20;;;;;;;0.45;0.20;;;10.20;99.90;;;;;;6731125;88;20508;-75
2020/12/21 21:46:20;;;;;;;1.40;0.20;;;10.20;99.90;;;;;;6729117;88;20283;-76
2020/12/21 21:56:21;;;;;;;0.40;0.10;;;10.30;99.90;;;;;;6730857;88;20587;-76
2020/12/21 22:06:21;;;;;;;0.35;0.10;;;10.50;99.90;;;;;;6732609;88;20225;-77
2020/12/21 22:16:22;;;;;;;0.62;0.28;;;10.60;99.90;;;;;;6730511;88;20696;-75
2020/12/21 22:26:22;;;;;;;0.45;0.20;;;10.60;99.90;;;;;;6730838;88;20613;-76
2020/12/21 22:36:23;;;;;;;0.30;0.20;;;10.70;99.90;;;;;;6730467;88;20181;-76
2020/12/21 22:46:23;;;;;;;0.75;0.25;;;10.70;99.90;;;;;;6725923;88;20204;-77
2020/12/21 22:56:25;;;;;;;0.40;0.20;;;10.90;99.90;;;;;;6731209;88;20204;-76
2020/12/21 23:06:25;;;;;;;0.30;0.10;;;11.00;99.90;;;;;;6726283;88;20199;-77
2020/12/21 23:16:26;;;;;;;0.03;0.03;;;11.20;99.90;;;;;;6727734;88;20649;-80
2020/12/21 23:26:26;;;;;;;0.20;0.10;;;11.30;99.90;;;;;;6725466;88;20189;-76
2020/12/21 23:36:27;;;;;;;0.20;0.10;;;11.30;99.90;;;;;;6733783;88;20232;-76
2020/12/21 23:46:27;;;;;;;0.30;0.10;;;11.40;99.90;;;;;;6730049;88;20354;-76
2020/12/21 23:56:28;;;;;;;0.20;0.10;;;11.60;99.90;;;;;;6740726;88;20198;-76
